Aeroporto :
LOGIN :

Iscrizione | Disclaimer

   EN    FR    IT 

 










Sommario :    VFR   VFR Marginale   IFR   IFR Intensivo   IFR Molto Intensivo
Visibilità : 
Base nubi : 
>= 8 km
>= 3000ft
5 / 8 km
1000 / 3000 ft
1500m / 5 km
500 / 1000 ft
800 / 1500m
200 / 500 ft
< 800m
< 200 ft
Simboli :   Temporali  Nebbia  Neve Forte  Precipitazioni Forti  Vento > 20 kt
SIGMETs :   Varie  Temporali  Ghiacco  Turbolenza  Onda orograficha  Ceneri Vulcaniche






- Altitudine del aeroporto : 1487 ft
- Codice IATA : MUC


EDDM - München Franz Josef Strauss

ULTIMO METAR :
  • 051320Z 27007KT 240V310 9999 SCT028 20/13 Q1010 NOSIG

METARs OBSOLETI :
  • 051250Z 28006KT 230V310 9999 SCT025 19/13 Q1011 NOSIG
  • 051220Z 28005KT 250V320 9999 SCT025 19/13 Q1011 NOSIG
  • 051150Z 26008KT 230V290 9999 SCT024 18/13 Q1011 NOSIG
  • 051120Z 27006KT 240V310 9999 BKN024 18/13 Q1011 NOSIG
  • 051050Z 27006KT 240V310 9999 BKN022 17/13 Q1011 NOSIG

TAF TAF EDDM
Valido dal 05 a 12 ore il 06 a 18 ore UTC


051100Z 0512/0618 26007KT 9999 SCT020
PROB30
TEMPO 0512/0517 27015G25KT TSRA BKN025CB
PROB30
TEMPO 0517/0602 SHRA BKN025CB
BECMG 0601/0603 22002KT
BECMG 0606/0608 25010KT
TEMPO 0607/0610 24020G35KT 3000 TSRA BKN012 BKN035CB
BECMG 0608/0610 26015KT
PROB30
TEMPO 0612/0615 27020G30KT TSRA BKN045CB
BECMG 0614/0616 26008KT



MetMap, La meteo Aeronautica in un colpo d'occhio ! - Copyright ORBIFLY Dicembre 2007 - Disclaimer

ORBIFLY MET'MAP TEAM :

Programmazione e sviluppo : Alexandra Zaïnal
Concezione : Baudouin d'Aumeries
Aiuto per la programmazione : Marc-Olivier Méhu
Supporto tecnico e logistico : Manuel Goepfert
Aiuto per la traduzione : Arnaldo La Scala

Contatto : metmap@orbifly.com




FONTI E CREDITI :

   NOAA